createdAt,value
2022-11-08T00:04:45.451Z,22
2022-11-08T00:10:07.845Z,22
2022-11-08T00:15:13.322Z,21.9
2022-11-08T00:20:50.533Z,21.9
2022-11-08T00:26:27.848Z,21.9
2022-11-08T00:31:49.738Z,21.9
2022-11-08T00:37:26.533Z,21.9
2022-11-08T00:43:04.843Z,21.9
2022-11-08T00:48:41.640Z,21.9
2022-11-08T00:54:18.391Z,21.9
2022-11-08T01:00:18.745Z,21.9
2022-11-08T01:05:56.633Z,21.9
2022-11-08T01:11:18.155Z,21.9
2022-11-08T01:16:40.252Z,21.8
2022-11-08T01:22:02.638Z,21.9
2022-11-08T01:27:39.901Z,21.8
2022-11-08T01:33:17.634Z,21.8
2022-11-08T01:38:55.663Z,21.8
2022-11-08T01:44:01.537Z,21.8
2022-11-08T01:49:40.587Z,21.8
2022-11-08T01:55:02.356Z,21.8
2022-11-08T02:00:38.119Z,21.8
2022-11-08T02:06:16.226Z,21.8
2022-11-08T02:11:36.728Z,21.8
2022-11-08T02:17:19.286Z,21.8
2022-11-08T02:22:41.824Z,21.8
2022-11-08T02:28:19.178Z,21.8
2022-11-08T02:33:39.978Z,21.8
2022-11-08T02:39:18.248Z,21.7
2022-11-08T02:44:54.248Z,21.7
2022-11-08T02:50:34.165Z,21.7
2022-11-08T02:56:12.132Z,21.7
2022-11-08T03:01:33.150Z,21.7
2022-11-08T03:07:10.934Z,21.7
2022-11-08T03:12:18.427Z,21.6
2022-11-08T03:17:56.226Z,21.7
2022-11-08T03:23:37.597Z,21.7
2022-11-08T03:29:16.325Z,21.6
2022-11-08T03:34:37.090Z,21.6
2022-11-08T03:40:13.582Z,21.6
2022-11-08T03:45:35.908Z,21.6
2022-11-08T03:51:12.685Z,21.6
2022-11-08T03:56:49.412Z,21.6
2022-11-08T04:02:27.898Z,21.6
2022-11-08T04:07:49.554Z,21.6
2022-11-08T04:13:26.609Z,21.6
2022-11-08T04:19:09.627Z,21.6
2022-11-08T04:24:47.146Z,21.6
2022-11-08T04:30:08.700Z,21.6
2022-11-08T04:35:30.815Z,21.6
2022-11-08T04:40:53.337Z,21.6
2022-11-08T04:46:02.677Z,21.6
2022-11-08T04:51:47.053Z,21.6
2022-11-08T04:57:23.899Z,21.6
2022-11-08T05:02:37.758Z,21.5
2022-11-08T05:08:00.286Z,21.6
2022-11-08T05:13:43.309Z,21.6
2022-11-08T05:19:09.262Z,21.6
2022-11-08T05:24:50.510Z,21.6
2022-11-08T05:30:31.421Z,21.6
2022-11-08T05:36:08.231Z,21.5
2022-11-08T05:41:55.554Z,21.5
2022-11-08T05:47:16.845Z,21.5
2022-11-08T05:52:37.942Z,21.5
2022-11-08T05:58:16.776Z,21.5
2022-11-08T06:03:57.014Z,21.5
2022-11-08T06:09:38.872Z,21.5
2022-11-08T06:15:18.517Z,21.5
2022-11-08T06:20:55.927Z,21.5
2022-11-08T06:26:36.817Z,21.5
2022-11-08T06:32:16.382Z,21.5
2022-11-08T06:37:39.235Z,21.4
2022-11-08T06:43:05.768Z,21.4
2022-11-08T06:48:34.227Z,21.4
2022-11-08T06:54:15.500Z,21.4
2022-11-08T06:59:54.151Z,21.4
2022-11-08T07:05:34.048Z,21.4
2022-11-08T07:10:58.426Z,21.4
2022-11-08T07:16:35.430Z,21.3
2022-11-08T07:22:13.974Z,21.4
2022-11-08T07:27:51.803Z,21.3
2022-11-08T07:33:30.345Z,21.3
2022-11-08T07:38:53.353Z,21.3
2022-11-08T07:44:58.370Z,21.3
2022-11-08T07:50:34.804Z,21.3
2022-11-08T07:56:17.043Z,21.3
2022-11-08T08:01:54.809Z,21.3
2022-11-08T08:07:33.288Z,21.3
2022-11-08T08:13:17.554Z,21.3
2022-11-08T08:18:56.521Z,21.3
2022-11-08T08:24:18.615Z,21.3
2022-11-08T08:29:56.540Z,21.2
2022-11-08T08:36:08.884Z,21.2
2022-11-08T08:41:53.369Z,21.2
2022-11-08T08:47:33.479Z,21.2
2022-11-08T08:53:10.744Z,21.2
2022-11-08T09:50:34.022Z,21.1
2022-11-08T09:56:14.263Z,21.1
2022-11-08T10:01:57.629Z,21.1
2022-11-08T10:13:00.395Z,21.1
2022-11-08T10:24:11.448Z,20.3
2022-11-08T10:29:52.288Z,43.6
2022-11-08T10:35:29.594Z,37.8
2022-11-08T10:41:07.294Z,33.8
2022-11-08T10:46:50.789Z,33.8
2022-11-08T10:52:30.648Z,50.1
2022-11-08T10:58:07.924Z,46
2022-11-08T11:03:48.529Z,45.9
2022-11-08T11:09:26.273Z,44.8
2022-11-08T11:14:52.438Z,38.8
2022-11-08T11:20:30.899Z,36.1
2022-11-08T11:26:08.524Z,34
2022-11-08T11:31:45.949Z,32.1
2022-11-08T11:37:24.611Z,30.7
2022-11-08T11:43:28.869Z,29.5
2022-11-08T11:49:10.630Z,28.4
2022-11-08T11:54:54.593Z,27.6
2022-11-08T12:00:32.542Z,26.9
2022-11-08T12:06:13.902Z,26.4
2022-11-08T12:11:37.709Z,46.9
2022-11-08T12:17:19.336Z,45.9
2022-11-08T12:23:01.882Z,44.5
2022-11-08T12:28:42.279Z,46.5
2022-11-08T12:34:19.769Z,45.8
2022-11-08T12:39:56.865Z,46.3
2022-11-08T12:45:35.216Z,44.9
2022-11-08T12:51:17.632Z,44.9
2022-11-08T12:56:54.620Z,44.6
2022-11-08T13:02:34.231Z,40.6
2022-11-08T13:08:17.324Z,37.7
2022-11-08T13:13:53.947Z,35.3
2022-11-08T13:19:32.735Z,33.4
2022-11-08T13:25:34.229Z,31.9
2022-11-08T13:30:59.443Z,30.5
2022-11-08T13:36:37.546Z,29.6
2022-11-08T13:42:19.272Z,28.7
2022-11-08T13:47:56.531Z,27.9
2022-11-08T13:53:35.770Z,27.3
2022-11-08T13:59:13.908Z,26.8
2022-11-08T14:04:52.368Z,26.3
2022-11-08T14:10:39.322Z,25.9
2022-11-08T14:16:16.814Z,25.6
2022-11-08T14:21:53.822Z,25.3
2022-11-08T14:27:38.925Z,24.9
2022-11-08T14:33:22.797Z,24.7
2022-11-08T14:39:02.747Z,24.4
2022-11-08T14:44:41.348Z,24.3
2022-11-08T14:50:19.550Z,24.1
2022-11-08T14:55:47.800Z,23.9
2022-11-08T15:01:26.296Z,23.8
2022-11-08T15:06:48.536Z,23.7
2022-11-08T15:12:26.483Z,23.5
2022-11-08T15:18:10.266Z,23.4
2022-11-08T15:23:47.803Z,23.3
2022-11-08T15:29:27.462Z,23.3
2022-11-08T15:35:10.383Z,23.1
2022-11-08T15:40:36.584Z,23.1
2022-11-08T15:45:58.363Z,23.1
2022-11-08T15:51:36.592Z,23
2022-11-08T15:57:14.156Z,22.9
2022-11-08T16:02:52.486Z,22.9
2022-11-08T16:08:19.909Z,22.8
2022-11-08T16:13:57.668Z,22.8
2022-11-08T16:19:25.259Z,22.7
2022-11-08T16:25:09.456Z,22.6
2022-11-08T16:30:30.887Z,22.6
2022-11-08T16:41:31.032Z,22.5
2022-11-08T16:47:26.590Z,22.5
2022-11-08T16:53:04.760Z,22.4
2022-11-08T16:59:13.863Z,22.4
2022-11-08T17:04:36.373Z,22.4
2022-11-08T17:10:03.964Z,22.3
2022-11-08T17:15:42.537Z,22.3
2022-11-08T17:21:59.564Z,22.3
2022-11-08T17:27:41.389Z,22.2
2022-11-08T17:33:20.687Z,22.2
2022-11-08T17:38:58.766Z,22.1
2022-11-08T17:44:40.162Z,22.1
2022-11-08T17:50:18.414Z,22.1
2022-11-08T17:55:59.547Z,22.1
2022-11-08T18:01:21.006Z,22.1
2022-11-08T18:07:01.442Z,22.1
2022-11-08T18:12:43.307Z,22.1
2022-11-08T18:18:09.470Z,22
2022-11-08T18:23:17.530Z,22
2022-11-08T18:28:45.152Z,22
2022-11-08T18:34:28.148Z,21.9
2022-11-08T18:40:09.424Z,21.9
2022-11-08T18:45:47.632Z,21.9
2022-11-08T18:51:31.501Z,21.9
2022-11-08T18:57:09.231Z,21.9
2022-11-08T19:02:52.101Z,21.9
2022-11-08T19:08:01.932Z,21.8
2022-11-08T19:13:39.621Z,21.8
2022-11-08T19:19:01.218Z,21.8
2022-11-08T19:24:38.031Z,21.8
2022-11-08T19:30:18.503Z,21.8
2022-11-08T19:35:40.945Z,21.8
2022-11-08T19:41:23.054Z,21.8
2022-11-08T19:46:30.690Z,21.8
2022-11-08T19:51:53.349Z,21.8
2022-11-08T19:57:21.656Z,21.8
2022-11-08T20:02:44.898Z,21.8
2022-11-08T20:08:07.697Z,21.8
2022-11-08T20:13:30.640Z,21.8
2022-11-08T20:18:39.044Z,21.8
2022-11-08T20:24:16.661Z,21.9
2022-11-08T20:29:46.168Z,21.9
2022-11-08T20:35:28.425Z,22
2022-11-08T20:40:53.603Z,22.1
2022-11-08T20:46:21.277Z,22.1
2022-11-08T20:52:09.119Z,22.2
2022-11-08T20:57:51.987Z,22.3
2022-11-08T21:03:52.152Z,22.4
2022-11-08T21:12:07.341Z,22.5
2022-11-08T21:17:54.622Z,22.6
2022-11-08T21:30:55.607Z,22.7
2022-11-08T21:36:34.173Z,22.8
2022-11-08T21:42:10.660Z,22.8
2022-11-08T21:47:53.016Z,22.7
2022-11-08T21:53:39.270Z,22.6
2022-11-08T21:59:19.535Z,22.6
2022-11-08T22:04:27.245Z,22.6
2022-11-08T22:09:55.927Z,22.6
2022-11-08T22:15:32.946Z,22.6
2022-11-08T22:21:17.670Z,22.6
2022-11-08T22:26:24.411Z,22.5
2022-11-08T22:31:30.487Z,22.5
2022-11-08T22:36:56.299Z,22.6
2022-11-08T22:42:18.858Z,22.6
2022-11-08T22:47:40.753Z,22.5
2022-11-08T22:53:06.759Z,22.5
2022-11-08T22:57:58.192Z,22.5
2022-11-08T23:02:49.910Z,22.5
2022-11-08T23:08:12.650Z,22.5
2022-11-08T23:13:20.134Z,22.5
2022-11-08T23:18:26.071Z,22.5
2022-11-08T23:24:04.089Z,22.4
2022-11-08T23:29:13.443Z,22.4
2022-11-08T23:34:04.157Z,22.4
2022-11-08T23:39:14.250Z,22.4
2022-11-08T23:44:51.571Z,22.4
2022-11-08T23:50:12.459Z,22.4
2022-11-08T23:55:19.130Z,22.4
